sensor_id;sensor_type;location;lat;lon;timestamp;pressure;altitude;pressure_sealevel;temperature;humidity
31044;BME280;17710;52.520;13.352;2023-07-09T00:00:52;101711.97;;;27.23;30.62
31044;BME280;17710;52.520;13.352;2023-07-09T00:03:19;101709.81;;;27.27;30.50
31044;BME280;17710;52.520;13.352;2023-07-09T00:05:47;101711.25;;;27.21;30.99
31044;BME280;17710;52.520;13.352;2023-07-09T00:08:24;101710.59;;;26.98;30.89
31044;BME280;17710;52.520;13.352;2023-07-09T00:10:52;101703.28;;;26.89;31.31
31044;BME280;17710;52.520;13.352;2023-07-09T00:13:18;101714.72;;;26.93;31.29
31044;BME280;17710;52.520;13.352;2023-07-09T00:15:47;101707.63;;;27.11;31.58
31044;BME280;17710;52.520;13.352;2023-07-09T00:18:13;101714.81;;;26.61;33.01
31044;BME280;17710;52.520;13.352;2023-07-09T00:20:40;101705.22;;;26.78;32.72
31044;BME280;17710;52.520;13.352;2023-07-09T00:23:08;101705.38;;;26.86;32.73
31044;BME280;17710;52.520;13.352;2023-07-09T00:25:38;101708.63;;;26.80;33.29
31044;BME280;17710;52.520;13.352;2023-07-09T00:28:12;101702.78;;;26.54;34.07
31044;BME280;17710;52.520;13.352;2023-07-09T00:30:39;101698.19;;;26.45;33.97
31044;BME280;17710;52.520;13.352;2023-07-09T00:33:10;101697.22;;;26.25;34.29
31044;BME280;17710;52.520;13.352;2023-07-09T00:35:36;101700.16;;;26.22;34.42
31044;BME280;17710;52.520;13.352;2023-07-09T00:38:11;101696.00;;;26.39;34.11
31044;BME280;17710;52.520;13.352;2023-07-09T00:40:46;101702.59;;;26.46;34.17
31044;BME280;17710;52.520;13.352;2023-07-09T00:43:15;101691.19;;;26.73;33.13
31044;BME280;17710;52.520;13.352;2023-07-09T00:45:42;101684.69;;;26.54;32.91
31044;BME280;17710;52.520;13.352;2023-07-09T00:48:12;101679.72;;;26.59;32.66
31044;BME280;17710;52.520;13.352;2023-07-09T00:50:42;101680.75;;;26.68;32.63
31044;BME280;17710;52.520;13.352;2023-07-09T00:53:15;101679.06;;;26.46;33.05
31044;BME280;17710;52.520;13.352;2023-07-09T00:55:45;101680.88;;;26.67;32.59
31044;BME280;17710;52.520;13.352;2023-07-09T00:58:14;101672.38;;;26.81;32.07
31044;BME280;17710;52.520;13.352;2023-07-09T01:00:44;101677.25;;;26.87;31.92
31044;BME280;17710;52.520;13.352;2023-07-09T01:03:18;101667.91;;;27.01;31.70
31044;BME280;17710;52.520;13.352;2023-07-09T01:05:47;101666.63;;;26.95;32.03
31044;BME280;17710;52.520;13.352;2023-07-09T01:08:18;101668.44;;;26.34;33.09
31044;BME280;17710;52.520;13.352;2023-07-09T01:10:45;101663.91;;;26.95;32.12
31044;BME280;17710;52.520;13.352;2023-07-09T01:13:12;101667.69;;;26.83;32.54
31044;BME280;17710;52.520;13.352;2023-07-09T01:15:39;101673.28;;;26.61;33.49
31044;BME280;17710;52.520;13.352;2023-07-09T01:18:06;101682.97;;;26.53;34.34
31044;BME280;17710;52.520;13.352;2023-07-09T01:20:35;101686.75;;;26.41;34.73
31044;BME280;17710;52.520;13.352;2023-07-09T01:23:03;101680.28;;;26.33;36.11
31044;BME280;17710;52.520;13.352;2023-07-09T01:25:31;101682.66;;;26.26;36.25
31044;BME280;17710;52.520;13.352;2023-07-09T01:27:58;101682.31;;;25.99;36.49
31044;BME280;17710;52.520;13.352;2023-07-09T01:30:27;101690.38;;;26.10;36.92
31044;BME280;17710;52.520;13.352;2023-07-09T01:32:56;101680.09;;;25.72;37.83
31044;BME280;17710;52.520;13.352;2023-07-09T01:35:23;101683.41;;;25.75;37.15
31044;BME280;17710;52.520;13.352;2023-07-09T01:37:51;101687.16;;;25.52;37.60
31044;BME280;17710;52.520;13.352;2023-07-09T01:40:22;101683.94;;;25.47;37.87
31044;BME280;17710;52.520;13.352;2023-07-09T01:42:49;101679.25;;;25.60;37.52
31044;BME280;17710;52.520;13.352;2023-07-09T01:45:16;101687.88;;;25.54;37.48
31044;BME280;17710;52.520;13.352;2023-07-09T01:47:42;101683.47;;;25.42;37.87
31044;BME280;17710;52.520;13.352;2023-07-09T01:50:10;101685.75;;;25.26;38.26
31044;BME280;17710;52.520;13.352;2023-07-09T01:52:40;101680.06;;;25.29;38.29
31044;BME280;17710;52.520;13.352;2023-07-09T01:55:09;101671.84;;;25.30;38.46
31044;BME280;17710;52.520;13.352;2023-07-09T01:57:38;101677.44;;;25.50;37.36
31044;BME280;17710;52.520;13.352;2023-07-09T02:00:08;101670.38;;;25.69;36.57
31044;BME280;17710;52.520;13.352;2023-07-09T02:02:35;101676.00;;;25.77;36.00
31044;BME280;17710;52.520;13.352;2023-07-09T02:05:04;101668.09;;;25.86;35.96
31044;BME280;17710;52.520;13.352;2023-07-09T02:07:31;101680.63;;;25.87;36.07
31044;BME280;17710;52.520;13.352;2023-07-09T02:09:58;101678.59;;;25.79;35.75
31044;BME280;17710;52.520;13.352;2023-07-09T02:12:24;101673.94;;;25.70;35.88
31044;BME280;17710;52.520;13.352;2023-07-09T02:14:52;101677.91;;;25.55;36.39
31044;BME280;17710;52.520;13.352;2023-07-09T02:17:18;101678.09;;;25.74;35.60
31044;BME280;17710;52.520;13.352;2023-07-09T02:19:44;101678.03;;;25.64;35.68
31044;BME280;17710;52.520;13.352;2023-07-09T02:22:11;101679.97;;;25.30;36.32
31044;BME280;17710;52.520;13.352;2023-07-09T02:24:38;101691.13;;;25.80;35.56
31044;BME280;17710;52.520;13.352;2023-07-09T02:27:08;101694.88;;;25.68;35.48
31044;BME280;17710;52.520;13.352;2023-07-09T02:29:36;101697.88;;;25.86;34.92
31044;BME280;17710;52.520;13.352;2023-07-09T02:32:04;101694.88;;;25.57;35.87
31044;BME280;17710;52.520;13.352;2023-07-09T02:34:31;101688.19;;;25.40;36.84
31044;BME280;17710;52.520;13.352;2023-07-09T02:36:58;101690.78;;;25.30;37.89
31044;BME280;17710;52.520;13.352;2023-07-09T02:39:25;101690.19;;;25.27;38.40
31044;BME280;17710;52.520;13.352;2023-07-09T02:41:52;101695.09;;;25.22;38.41
31044;BME280;17710;52.520;13.352;2023-07-09T02:44:19;101690.97;;;25.50;38.05
31044;BME280;17710;52.520;13.352;2023-07-09T02:46:46;101683.97;;;25.58;37.57
31044;BME280;17710;52.520;13.352;2023-07-09T02:49:14;101696.53;;;25.59;37.63
31044;BME280;17710;52.520;13.352;2023-07-09T02:51:40;101696.72;;;25.56;37.36
31044;BME280;17710;52.520;13.352;2023-07-09T02:54:07;101696.94;;;25.75;37.33
31044;BME280;17710;52.520;13.352;2023-07-09T02:56:34;101698.41;;;25.79;36.89
31044;BME280;17710;52.520;13.352;2023-07-09T02:59:00;101705.72;;;25.57;36.60
31044;BME280;17710;52.520;13.352;2023-07-09T03:01:27;101706.38;;;25.38;36.88
31044;BME280;17710;52.520;13.352;2023-07-09T03:03:54;101705.88;;;25.44;38.07
31044;BME280;17710;52.520;13.352;2023-07-09T03:06:23;101707.81;;;25.53;38.10
31044;BME280;17710;52.520;13.352;2023-07-09T03:08:50;101714.94;;;25.65;37.37
31044;BME280;17710;52.520;13.352;2023-07-09T03:11:17;101707.81;;;25.64;37.40
31044;BME280;17710;52.520;13.352;2023-07-09T03:13:44;101707.25;;;25.38;37.80
31044;BME280;17710;52.520;13.352;2023-07-09T03:16:11;101709.50;;;25.11;39.24
31044;BME280;17710;52.520;13.352;2023-07-09T03:18:38;101710.81;;;25.28;39.56
31044;BME280;17710;52.520;13.352;2023-07-09T03:21:04;101706.06;;;25.20;40.08
31044;BME280;17710;52.520;13.352;2023-07-09T03:23:32;101705.19;;;25.09;40.61
31044;BME280;17710;52.520;13.352;2023-07-09T03:25:58;101708.81;;;25.41;40.05
31044;BME280;17710;52.520;13.352;2023-07-09T03:28:25;101717.69;;;25.43;39.91
31044;BME280;17710;52.520;13.352;2023-07-09T03:30:54;101714.22;;;25.52;38.21
31044;BME280;17710;52.520;13.352;2023-07-09T03:33:21;101716.16;;;25.72;36.82
31044;BME280;17710;52.520;13.352;2023-07-09T03:35:47;101720.31;;;25.76;36.33
31044;BME280;17710;52.520;13.352;2023-07-09T03:38:14;101718.19;;;25.80;36.28
31044;BME280;17710;52.520;13.352;2023-07-09T03:40:42;101716.34;;;25.80;36.51
31044;BME280;17710;52.520;13.352;2023-07-09T03:43:09;101708.97;;;25.83;36.30
31044;BME280;17710;52.520;13.352;2023-07-09T03:45:36;101715.81;;;25.87;36.66
31044;BME280;17710;52.520;13.352;2023-07-09T03:48:03;101716.84;;;25.86;36.08
31044;BME280;17710;52.520;13.352;2023-07-09T03:50:31;101711.22;;;25.77;36.40
31044;BME280;17710;52.520;13.352;2023-07-09T03:52:57;101715.81;;;25.87;36.50
31044;BME280;17710;52.520;13.352;2023-07-09T03:55:25;101721.75;;;25.92;36.27
31044;BME280;17710;52.520;13.352;2023-07-09T03:57:53;101721.91;;;26.00;36.06
31044;BME280;17710;52.520;13.352;2023-07-09T04:00:19;101720.81;;;26.02;36.39
31044;BME280;17710;52.520;13.352;2023-07-09T04:02:46;101721.88;;;26.11;36.17
31044;BME280;17710;52.520;13.352;2023-07-09T04:05:12;101723.31;;;25.94;36.15
31044;BME280;17710;52.520;13.352;2023-07-09T04:07:39;101724.66;;;26.20;35.92
31044;BME280;17710;52.520;13.352;2023-07-09T04:10:06;101733.44;;;26.13;36.37
31044;BME280;17710;52.520;13.352;2023-07-09T04:12:33;101739.59;;;26.15;36.19
31044;BME280;17710;52.520;13.352;2023-07-09T04:15:01;101731.56;;;26.13;35.89
31044;BME280;17710;52.520;13.352;2023-07-09T04:17:28;101737.25;;;26.42;35.66
31044;BME280;17710;52.520;13.352;2023-07-09T04:19:55;101738.84;;;26.24;36.11
31044;BME280;17710;52.520;13.352;2023-07-09T04:22:21;101734.75;;;26.50;35.65
31044;BME280;17710;52.520;13.352;2023-07-09T04:24:48;101738.09;;;26.43;35.72
31044;BME280;17710;52.520;13.352;2023-07-09T04:27:15;101733.34;;;26.56;35.92
31044;BME280;17710;52.520;13.352;2023-07-09T04:29:42;101736.94;;;26.66;35.52
31044;BME280;17710;52.520;13.352;2023-07-09T04:32:12;101737.91;;;26.55;35.65
31044;BME280;17710;52.520;13.352;2023-07-09T04:34:39;101733.47;;;26.85;35.06
31044;BME280;17710;52.520;13.352;2023-07-09T04:37:06;101738.72;;;26.98;35.00
31044;BME280;17710;52.520;13.352;2023-07-09T04:39:33;101734.56;;;26.73;35.48
31044;BME280;17710;52.520;13.352;2023-07-09T04:41:59;101737.47;;;26.81;35.44
31044;BME280;17710;52.520;13.352;2023-07-09T04:44:26;101742.44;;;27.06;35.02
31044;BME280;17710;52.520;13.352;2023-07-09T04:46:52;101734.75;;;27.02;35.14
31044;BME280;17710;52.520;13.352;2023-07-09T04:49:20;101733.81;;;27.22;35.12
31044;BME280;17710;52.520;13.352;2023-07-09T04:51:46;101734.97;;;27.38;34.55
31044;BME280;17710;52.520;13.352;2023-07-09T04:54:12;101735.16;;;27.37;34.25
31044;BME280;17710;52.520;13.352;2023-07-09T04:56:40;101732.63;;;27.55;34.09
31044;BME280;17710;52.520;13.352;2023-07-09T04:59:09;101732.50;;;27.66;33.62
31044;BME280;17710;52.520;13.352;2023-07-09T05:01:35;101733.09;;;28.18;33.37
31044;BME280;17710;52.520;13.352;2023-07-09T05:04:02;101728.72;;;28.63;32.27
31044;BME280;17710;52.520;13.352;2023-07-09T05:06:30;101735.66;;;29.94;30.09
31044;BME280;17710;52.520;13.352;2023-07-09T05:08:56;101741.97;;;31.08;28.40
31044;BME280;17710;52.520;13.352;2023-07-09T05:11:23;101738.56;;;31.64;27.32
31044;BME280;17710;52.520;13.352;2023-07-09T05:13:49;101727.56;;;31.40;27.37
31044;BME280;17710;52.520;13.352;2023-07-09T05:16:16;101731.31;;;31.39;27.28
31044;BME280;17710;52.520;13.352;2023-07-09T05:18:44;101740.78;;;31.18;27.66
31044;BME280;17710;52.520;13.352;2023-07-09T05:21:10;101739.94;;;30.84;27.60
31044;BME280;17710;52.520;13.352;2023-07-09T05:23:38;101739.75;;;30.85;27.56
31044;BME280;17710;52.520;13.352;2023-07-09T05:26:05;101751.03;;;30.39;27.66
31044;BME280;17710;52.520;13.352;2023-07-09T05:28:31;101755.22;;;30.33;28.23
31044;BME280;17710;52.520;13.352;2023-07-09T05:30:58;101744.91;;;30.01;28.38
31044;BME280;17710;52.520;13.352;2023-07-09T05:33:24;101742.19;;;29.39;29.61
31044;BME280;17710;52.520;13.352;2023-07-09T05:35:50;101736.75;;;29.39;29.74
31044;BME280;17710;52.520;13.352;2023-07-09T05:38:17;101736.47;;;29.59;29.27
31044;BME280;17710;52.520;13.352;2023-07-09T05:40:44;101742.69;;;29.24;29.47
31044;BME280;17710;52.520;13.352;2023-07-09T05:43:11;101736.97;;;29.18;30.09
31044;BME280;17710;52.520;13.352;2023-07-09T05:45:38;101741.53;;;29.27;30.28
31044;BME280;17710;52.520;13.352;2023-07-09T05:48:05;101739.09;;;29.34;30.52
31044;BME280;17710;52.520;13.352;2023-07-09T05:50:33;101735.00;;;29.65;29.53
31044;BME280;17710;52.520;13.352;2023-07-09T05:53:00;101738.81;;;29.90;28.56
31044;BME280;17710;52.520;13.352;2023-07-09T05:55:26;101748.09;;;29.79;29.16
31044;BME280;17710;52.520;13.352;2023-07-09T05:57:54;101739.84;;;29.71;29.09
31044;BME280;17710;52.520;13.352;2023-07-09T06:00:21;101738.97;;;29.88;28.35
31044;BME280;17710;52.520;13.352;2023-07-09T06:02:48;101741.78;;;30.14;28.29
31044;BME280;17710;52.520;13.352;2023-07-09T06:05:14;101743.84;;;30.12;28.08
31044;BME280;17710;52.520;13.352;2023-07-09T06:07:40;101737.56;;;30.37;27.76
31044;BME280;17710;52.520;13.352;2023-07-09T06:10:08;101734.91;;;30.45;27.73
31044;BME280;17710;52.520;13.352;2023-07-09T06:12:35;101739.69;;;30.08;28.40
31044;BME280;17710;52.520;13.352;2023-07-09T06:15:04;101744.56;;;30.58;27.65
31044;BME280;17710;52.520;13.352;2023-07-09T06:17:31;101746.34;;;30.75;27.62
31044;BME280;17710;52.520;13.352;2023-07-09T06:19:57;101740.34;;;30.45;28.00
31044;BME280;17710;52.520;13.352;2023-07-09T06:22:23;101746.31;;;30.23;27.77
31044;BME280;17710;52.520;13.352;2023-07-09T06:24:50;101747.50;;;30.46;27.35
31044;BME280;17710;52.520;13.352;2023-07-09T06:27:16;101751.41;;;30.26;27.46
31044;BME280;17710;52.520;13.352;2023-07-09T06:29:43;101751.94;;;30.65;28.00
31044;BME280;17710;52.520;13.352;2023-07-09T06:32:11;101750.66;;;30.52;28.77
31044;BME280;17710;52.520;13.352;2023-07-09T06:34:37;101750.47;;;30.53;27.49
31044;BME280;17710;52.520;13.352;2023-07-09T06:37:03;101751.38;;;30.87;27.24
31044;BME280;17710;52.520;13.352;2023-07-09T06:39:33;101750.94;;;31.00;27.27
31044;BME280;17710;52.520;13.352;2023-07-09T06:42:00;101757.84;;;30.61;28.33
31044;BME280;17710;52.520;13.352;2023-07-09T06:44:26;101757.91;;;31.28;27.67
31044;BME280;17710;52.520;13.352;2023-07-09T06:46:52;101748.97;;;31.10;27.01
31044;BME280;17710;52.520;13.352;2023-07-09T06:49:20;101757.69;;;31.14;26.93
31044;BME280;17710;52.520;13.352;2023-07-09T06:51:47;101758.41;;;31.66;26.69
31044;BME280;17710;52.520;13.352;2023-07-09T06:54:13;101762.84;;;31.67;26.58
31044;BME280;17710;52.520;13.352;2023-07-09T06:56:40;101760.81;;;31.85;26.22
31044;BME280;17710;52.520;13.352;2023-07-09T06:59:07;101760.28;;;31.74;26.02
31044;BME280;17710;52.520;13.352;2023-07-09T07:01:33;101761.84;;;31.92;26.20
31044;BME280;17710;52.520;13.352;2023-07-09T07:04:00;101757.88;;;31.71;25.83
31044;BME280;17710;52.520;13.352;2023-07-09T07:06:28;101766.03;;;31.54;26.43
31044;BME280;17710;52.520;13.352;2023-07-09T07:08:56;101761.84;;;31.92;26.06
31044;BME280;17710;52.520;13.352;2023-07-09T07:11:22;101761.47;;;31.71;25.64
31044;BME280;17710;52.520;13.352;2023-07-09T07:13:50;101760.66;;;31.87;25.90
31044;BME280;17710;52.520;13.352;2023-07-09T07:16:17;101761.06;;;32.32;25.67
31044;BME280;17710;52.520;13.352;2023-07-09T07:18:44;101759.81;;;32.11;25.14
31044;BME280;17710;52.520;13.352;2023-07-09T07:21:10;101760.38;;;32.38;25.05
31044;BME280;17710;52.520;13.352;2023-07-09T07:23:38;101754.22;;;32.28;24.80
31044;BME280;17710;52.520;13.352;2023-07-09T07:26:04;101754.91;;;32.14;25.58
31044;BME280;17710;52.520;13.352;2023-07-09T07:28:30;101758.81;;;32.60;25.22
31044;BME280;17710;52.520;13.352;2023-07-09T07:30:58;101762.78;;;32.33;25.64
31044;BME280;17710;52.520;13.352;2023-07-09T07:33:25;101756.25;;;32.59;25.18
31044;BME280;17710;52.520;13.352;2023-07-09T07:35:51;101762.25;;;32.38;25.13
31044;BME280;17710;52.520;13.352;2023-07-09T07:38:17;101757.44;;;32.72;25.12
31044;BME280;17710;52.520;13.352;2023-07-09T07:40:45;101754.16;;;32.85;25.25
31044;BME280;17710;52.520;13.352;2023-07-09T07:43:12;101762.72;;;32.58;25.13
31044;BME280;17710;52.520;13.352;2023-07-09T07:45:40;101753.72;;;33.12;24.72
31044;BME280;17710;52.520;13.352;2023-07-09T07:48:06;101756.03;;;32.93;25.29
31044;BME280;17710;52.520;13.352;2023-07-09T07:50:32;101758.53;;;33.02;24.89
31044;BME280;17710;52.520;13.352;2023-07-09T07:52:59;101753.91;;;33.11;24.81
31044;BME280;17710;52.520;13.352;2023-07-09T07:55:25;101757.00;;;33.08;24.87
31044;BME280;17710;52.520;13.352;2023-07-09T07:57:54;101749.84;;;32.99;24.92
31044;BME280;17710;52.520;13.352;2023-07-09T08:00:25;101748.56;;;33.26;24.97
31044;BME280;17710;52.520;13.352;2023-07-09T08:02:51;101752.41;;;33.70;24.58
31044;BME280;17710;52.520;13.352;2023-07-09T08:05:20;101761.22;;;33.88;23.36
31044;BME280;17710;52.520;13.352;2023-07-09T08:07:46;101761.06;;;33.90;23.27
31044;BME280;17710;52.520;13.352;2023-07-09T08:10:13;101757.19;;;33.45;23.83
31044;BME280;17710;52.520;13.352;2023-07-09T08:12:41;101752.50;;;33.15;24.18
31044;BME280;17710;52.520;13.352;2023-07-09T08:15:09;101746.56;;;33.50;24.07
31044;BME280;17710;52.520;13.352;2023-07-09T08:17:36;101751.63;;;33.31;24.20
31044;BME280;17710;52.520;13.352;2023-07-09T08:20:03;101752.09;;;33.96;24.16
31044;BME280;17710;52.520;13.352;2023-07-09T08:22:29;101757.59;;;33.96;23.44
31044;BME280;17710;52.520;13.352;2023-07-09T08:24:56;101754.84;;;33.65;24.20
31044;BME280;17710;52.520;13.352;2023-07-09T08:27:22;101746.75;;;33.80;23.33
31044;BME280;17710;52.520;13.352;2023-07-09T08:29:49;101757.88;;;34.01;23.74
31044;BME280;17710;52.520;13.352;2023-07-09T08:32:16;101756.47;;;33.82;24.01
31044;BME280;17710;52.520;13.352;2023-07-09T08:34:43;101752.78;;;33.98;23.95
31044;BME280;17710;52.520;13.352;2023-07-09T08:37:09;101757.66;;;34.11;23.25
31044;BME280;17710;52.520;13.352;2023-07-09T08:39:36;101755.34;;;34.22;23.21
31044;BME280;17710;52.520;13.352;2023-07-09T08:42:04;101755.63;;;34.27;22.86
31044;BME280;17710;52.520;13.352;2023-07-09T08:44:57;101747.22;;;34.29;22.75
31044;BME280;17710;52.520;13.352;2023-07-09T08:47:33;101754.66;;;34.43;22.96
31044;BME280;17710;52.520;13.352;2023-07-09T08:50:04;101755.75;;;34.34;22.42
31044;BME280;17710;52.520;13.352;2023-07-09T08:52:34;101752.41;;;34.61;22.36
31044;BME280;17710;52.520;13.352;2023-07-09T08:55:05;101743.97;;;34.63;22.22
31044;BME280;17710;52.520;13.352;2023-07-09T08:57:37;101746.22;;;34.45;22.10
31044;BME280;17710;52.520;13.352;2023-07-09T09:00:12;101736.31;;;34.58;22.31
31044;BME280;17710;52.520;13.352;2023-07-09T09:02:46;101742.28;;;34.62;22.45
31044;BME280;17710;52.520;13.352;2023-07-09T09:05:19;101738.38;;;34.56;22.38
31044;BME280;17710;52.520;13.352;2023-07-09T09:07:51;101739.41;;;34.78;22.08
31044;BME280;17710;52.520;13.352;2023-07-09T09:10:24;101740.03;;;34.80;22.29
31044;BME280;17710;52.520;13.352;2023-07-09T09:13:08;101741.91;;;34.65;22.12
31044;BME280;17710;52.520;13.352;2023-07-09T09:15:37;101739.75;;;34.75;22.14
31044;BME280;17710;52.520;13.352;2023-07-09T09:18:19;101735.50;;;34.87;21.22
31044;BME280;17710;52.520;13.352;2023-07-09T09:20:51;101735.22;;;34.97;21.27
31044;BME280;17710;52.520;13.352;2023-07-09T09:23:19;101737.97;;;34.97;21.36
31044;BME280;17710;52.520;13.352;2023-07-09T09:25:51;101729.16;;;34.87;21.25
31044;BME280;17710;52.520;13.352;2023-07-09T09:28:18;101735.31;;;34.74;20.57
31044;BME280;17710;52.520;13.352;2023-07-09T09:30:45;101742.91;;;34.72;20.39
31044;BME280;17710;52.520;13.352;2023-07-09T09:33:11;101736.47;;;34.42;19.86
31044;BME280;17710;52.520;13.352;2023-07-09T09:35:41;101743.13;;;34.62;19.37
31044;BME280;17710;52.520;13.352;2023-07-09T09:38:11;101731.13;;;34.63;19.49
31044;BME280;17710;52.520;13.352;2023-07-09T09:40:38;101734.44;;;34.59;20.49
31044;BME280;17710;52.520;13.352;2023-07-09T09:43:12;101735.22;;;34.30;20.49
31044;BME280;17710;52.520;13.352;2023-07-09T09:45:42;101742.66;;;34.59;20.36
31044;BME280;17710;52.520;13.352;2023-07-09T09:48:14;101739.13;;;34.50;20.08
31044;BME280;17710;52.520;13.352;2023-07-09T09:50:43;101740.56;;;34.61;19.91
31044;BME280;17710;52.520;13.352;2023-07-09T09:53:19;101744.72;;;34.57;20.79
31044;BME280;17710;52.520;13.352;2023-07-09T09:55:47;101747.25;;;34.44;20.61
31044;BME280;17710;52.520;13.352;2023-07-09T09:58:20;101739.56;;;34.76;20.35
31044;BME280;17710;52.520;13.352;2023-07-09T10:00:48;101735.13;;;34.90;20.36
31044;BME280;17710;52.520;13.352;2023-07-09T10:03:15;101735.41;;;35.10;20.33
31044;BME280;17710;52.520;13.352;2023-07-09T10:05:48;101737.59;;;34.85;20.42
31044;BME280;17710;52.520;13.352;2023-07-09T10:08:24;101736.00;;;34.91;20.79
31044;BME280;17710;52.520;13.352;2023-07-09T10:11:00;101738.22;;;35.16;20.60
31044;BME280;17710;52.520;13.352;2023-07-09T10:13:34;101730.66;;;35.04;20.64
31044;BME280;17710;52.520;13.352;2023-07-09T10:16:07;101731.16;;;35.22;20.34
31044;BME280;17710;52.520;13.352;2023-07-09T10:18:44;101736.22;;;35.40;20.46
31044;BME280;17710;52.520;13.352;2023-07-09T10:21:23;101732.53;;;35.33;20.95
31044;BME280;17710;52.520;13.352;2023-07-09T10:24:07;101731.59;;;35.26;20.02
31044;BME280;17710;52.520;13.352;2023-07-09T10:26:40;101732.91;;;35.44;19.65
31044;BME280;17710;52.520;13.352;2023-07-09T10:29:28;101733.09;;;35.13;19.36
31044;BME280;17710;52.520;13.352;2023-07-09T10:32:09;101731.47;;;35.19;19.42
31044;BME280;17710;52.520;13.352;2023-07-09T10:34:45;101728.28;;;35.15;20.27
31044;BME280;17710;52.520;13.352;2023-07-09T10:37:23;101725.47;;;35.24;20.66
31044;BME280;17710;52.520;13.352;2023-07-09T10:39:56;101731.91;;;35.31;20.66
31044;BME280;17710;52.520;13.352;2023-07-09T10:42:26;101727.19;;;35.25;20.51
31044;BME280;17710;52.520;13.352;2023-07-09T10:44:57;101728.47;;;34.99;20.40
31044;BME280;17710;52.520;13.352;2023-07-09T10:47:30;101725.84;;;35.21;20.50
31044;BME280;17710;52.520;13.352;2023-07-09T10:49:58;101724.44;;;35.25;20.62
31044;BME280;17710;52.520;13.352;2023-07-09T10:52:30;101717.13;;;34.88;20.13
31044;BME280;17710;52.520;13.352;2023-07-09T10:55:03;101722.81;;;34.86;20.27
31044;BME280;17710;52.520;13.352;2023-07-09T10:57:44;101719.78;;;35.10;20.35
31044;BME280;17710;52.520;13.352;2023-07-09T11:00:15;101718.34;;;35.00;20.56
31044;BME280;17710;52.520;13.352;2023-07-09T11:02:44;101720.16;;;35.22;20.55
31044;BME280;17710;52.520;13.352;2023-07-09T11:05:12;101719.09;;;35.38;21.04
31044;BME280;17710;52.520;13.352;2023-07-09T11:07:43;101719.97;;;35.24;20.83
31044;BME280;17710;52.520;13.352;2023-07-09T11:10:19;101719.56;;;35.12;20.83
31044;BME280;17710;52.520;13.352;2023-07-09T11:12:54;101725.84;;;35.21;21.22
31044;BME280;17710;52.520;13.352;2023-07-09T11:15:27;101721.34;;;35.19;20.67
31044;BME280;17710;52.520;13.352;2023-07-09T11:17:57;101715.97;;;35.26;20.73
31044;BME280;17710;52.520;13.352;2023-07-09T11:20:25;101713.97;;;35.35;20.30
31044;BME280;17710;52.520;13.352;2023-07-09T11:23:03;101707.25;;;35.37;20.35
31044;BME280;17710;52.520;13.352;2023-07-09T11:25:40;101704.28;;;35.39;20.50
31044;BME280;17710;52.520;13.352;2023-07-09T11:28:08;101698.81;;;35.60;20.51
31044;BME280;17710;52.520;13.352;2023-07-09T11:30:46;101700.75;;;35.24;19.82
31044;BME280;17710;52.520;13.352;2023-07-09T11:33:17;101685.53;;;35.42;20.42
31044;BME280;17710;52.520;13.352;2023-07-09T11:35:47;101685.19;;;35.52;19.72
31044;BME280;17710;52.520;13.352;2023-07-09T11:38:18;101680.63;;;35.59;20.00
31044;BME280;17710;52.520;13.352;2023-07-09T11:40:49;101687.25;;;35.43;20.74
31044;BME280;17710;52.520;13.352;2023-07-09T11:43:32;101677.84;;;35.74;21.25
31044;BME280;17710;52.520;13.352;2023-07-09T11:46:06;101684.97;;;35.68;20.46
31044;BME280;17710;52.520;13.352;2023-07-09T11:48:36;101676.25;;;35.86;20.72
31044;BME280;17710;52.520;13.352;2023-07-09T11:51:09;101678.94;;;35.79;20.36
31044;BME280;17710;52.520;13.352;2023-07-09T11:53:44;101680.53;;;35.88;20.09
31044;BME280;17710;52.520;13.352;2023-07-09T11:56:13;101670.19;;;35.69;20.29
31044;BME280;17710;52.520;13.352;2023-07-09T11:58:47;101671.75;;;35.78;20.10
31044;BME280;17710;52.520;13.352;2023-07-09T12:01:17;101669.97;;;35.92;20.22
31044;BME280;17710;52.520;13.352;2023-07-09T12:03:45;101664.47;;;35.92;20.38
31044;BME280;17710;52.520;13.352;2023-07-09T12:06:19;101663.22;;;35.94;20.07
31044;BME280;17710;52.520;13.352;2023-07-09T12:08:49;101673.69;;;36.06;20.18
31044;BME280;17710;52.520;13.352;2023-07-09T12:11:19;101660.19;;;36.11;19.62
31044;BME280;17710;52.520;13.352;2023-07-09T12:13:46;101660.06;;;36.19;19.64
31044;BME280;17710;52.520;13.352;2023-07-09T12:16:25;101658.09;;;36.13;19.81
31044;BME280;17710;52.520;13.352;2023-07-09T12:18:52;101657.03;;;36.14;20.15
31044;BME280;17710;52.520;13.352;2023-07-09T12:21:19;101653.25;;;36.15;19.74
31044;BME280;17710;52.520;13.352;2023-07-09T12:23:47;101647.03;;;36.06;19.92
31044;BME280;17710;52.520;13.352;2023-07-09T12:26:16;101651.91;;;36.32;19.69
31044;BME280;17710;52.520;13.352;2023-07-09T12:28:49;101644.75;;;36.10;19.14
31044;BME280;17710;52.520;13.352;2023-07-09T12:31:16;101649.81;;;36.34;19.77
31044;BME280;17710;52.520;13.352;2023-07-09T12:33:47;101646.94;;;36.49;20.17
31044;BME280;17710;52.520;13.352;2023-07-09T12:36:14;101642.06;;;36.51;19.45
31044;BME280;17710;52.520;13.352;2023-07-09T12:38:42;101641.75;;;36.32;19.18
31044;BME280;17710;52.520;13.352;2023-07-09T12:41:18;101635.25;;;36.40;19.32
31044;BME280;17710;52.520;13.352;2023-07-09T12:43:45;101637.03;;;36.54;18.91
31044;BME280;17710;52.520;13.352;2023-07-09T12:46:12;101636.50;;;36.72;19.07
31044;BME280;17710;52.520;13.352;2023-07-09T12:48:39;101634.41;;;36.74;19.30